Time;durP1;ratioP1;P1;durP2;ratioP2;P2;SDS_P1;SDS_P2;PMS_P1;PMS_P2;Temp;Humidity;BMP_temperature;BMP_pressure;BME280_temperature;BME280_humidity;BME280_pressure;Samples;Min_cycle;Max_cycle;Signal;HPM_P1;HPM_P2
2022/07/19 00:02:01;;;;;;;11.25;10.15;;;;;;;;;;4986672;28;20059;-75
2022/07/19 00:04:27;;;;;;;10.68;9.68;;;;;;;;;;4992112;28;20457;-74
2022/07/19 00:06:55;;;;;;;11.48;10.38;;;;;;;;;;4988202;28;20108;-75
2022/07/19 00:09:21;;;;;;;11.57;10.38;;;;;;;;;;4987715;28;20673;-75
2022/07/19 00:11:47;;;;;;;11.32;10.25;;;;;;;;;;4991728;28;20042;-74
2022/07/19 00:14:13;;;;;;;11.90;10.80;;;;;;;;;;4978894;28;20137;-75
2022/07/19 00:16:39;;;;;;;11.00;10.00;;;;;;;;;;4984610;28;20050;-75
2022/07/19 00:19:05;;;;;;;11.82;10.63;;;;;;;;;;4978624;28;20050;-74
2022/07/19 00:21:32;;;;;;;11.10;10.00;;;;;;;;;;4991056;28;21769;-74
2022/07/19 00:24:00;;;;;;;10.63;9.50;;;;;;;;;;4990975;28;20489;-74
2022/07/19 00:26:26;;;;;;;12.25;11.02;;;;;;;;;;4989810;28;20121;-74
2022/07/19 00:28:54;;;;;;;12.98;10.40;;;;;;;;;;4985196;28;20073;-75
2022/07/19 00:31:20;;;;;;;12.60;11.40;;;;;;;;;;4987423;28;20411;-75
2022/07/19 00:33:46;;;;;;;12.88;11.68;;;;;;;;;;4972776;28;20051;-74
2022/07/19 00:36:12;;;;;;;11.85;10.52;;;;;;;;;;4991005;28;20406;-75
2022/07/19 00:38:38;;;;;;;12.48;11.38;;;;;;;;;;4990681;28;20564;-77
2022/07/19 00:41:05;;;;;;;12.80;11.13;;;;;;;;;;4982455;28;20185;-74
2022/07/19 00:43:31;;;;;;;13.57;12.23;;;;;;;;;;4986500;28;20046;-74
2022/07/19 00:45:57;;;;;;;12.63;11.43;;;;;;;;;;4982697;28;20042;-74
2022/07/19 00:48:24;;;;;;;13.90;12.40;;;;;;;;;;4993646;28;20045;-74
2022/07/19 00:50:50;;;;;;;13.98;11.63;;;;;;;;;;4990407;28;20116;-74
2022/07/19 00:53:16;;;;;;;13.77;12.38;;;;;;;;;;4982892;28;20054;-74
2022/07/19 00:55:44;;;;;;;14.40;13.07;;;;;;;;;;4983334;28;20125;-74
2022/07/19 00:58:10;;;;;;;13.93;12.73;;;;;;;;;;4989514;28;20046;-74
2022/07/19 01:00:38;;;;;;;14.82;13.07;;;;;;;;;;4985970;28;20112;-74
2022/07/19 01:03:04;;;;;;;14.93;13.27;;;;;;;;;;4983523;28;20061;-75
2022/07/19 01:05:30;;;;;;;14.90;13.60;;;;;;;;;;4988369;28;20486;-74
2022/07/19 01:07:57;;;;;;;14.93;13.57;;;;;;;;;;4982865;28;20046;-74
2022/07/19 01:10:23;;;;;;;15.25;13.73;;;;;;;;;;4987250;28;20046;-74
2022/07/19 01:12:49;;;;;;;14.43;13.13;;;;;;;;;;4989843;28;20086;-74
2022/07/19 01:15:20;;;;;;;13.77;12.48;;;;;;;;;;4986028;28;20062;-74
2022/07/19 01:17:46;;;;;;;13.82;12.52;;;;;;;;;;4983837;28;20429;-74
2022/07/19 01:20:12;;;;;;;14.55;13.05;;;;;;;;;;4983646;28;20088;-74
2022/07/19 01:22:38;;;;;;;14.23;12.73;;;;;;;;;;4990938;28;20426;-74
2022/07/19 01:25:08;;;;;;;14.18;12.88;;;;;;;;;;4986739;28;20058;-74
2022/07/19 01:27:40;;;;;;;14.18;12.73;;;;;;;;;;4978956;28;20051;-74
2022/07/19 01:30:17;;;;;;;13.75;12.45;;;;;;;;;;4984576;28;20094;-74
2022/07/19 01:32:43;;;;;;;13.73;12.35;;;;;;;;;;4979860;28;20081;-74
2022/07/19 01:35:09;;;;;;;13.18;11.98;;;;;;;;;;4984098;28;20050;-74
2022/07/19 01:37:35;;;;;;;13.30;11.90;;;;;;;;;;4985692;28;20422;-74
2022/07/19 01:40:03;;;;;;;13.73;12.43;;;;;;;;;;4986209;28;20046;-74
2022/07/19 01:42:29;;;;;;;12.77;11.50;;;;;;;;;;4989008;28;20065;-74
2022/07/19 01:44:55;;;;;;;13.27;11.90;;;;;;;;;;4988200;28;20054;-75
2022/07/19 01:47:21;;;;;;;12.18;11.05;;;;;;;;;;4985030;28;20050;-74
2022/07/19 01:49:47;;;;;;;12.60;11.38;;;;;;;;;;4989666;28;20525;-74
2022/07/19 01:52:13;;;;;;;11.93;10.80;;;;;;;;;;4984634;28;20114;-74
2022/07/19 01:54:39;;;;;;;11.63;10.57;;;;;;;;;;4986315;28;20074;-74
2022/07/19 01:57:05;;;;;;;11.85;10.75;;;;;;;;;;4989538;28;20545;-74
2022/07/19 01:59:31;;;;;;;11.77;10.57;;;;;;;;;;4991543;28;20092;-74
2022/07/19 02:01:57;;;;;;;12.95;11.55;;;;;;;;;;4984558;28;20153;-74
2022/07/19 02:04:23;;;;;;;11.52;10.50;;;;;;;;;;4983070;28;20130;-74
2022/07/19 02:06:49;;;;;;;12.20;10.95;;;;;;;;;;4982877;28;20046;-74
2022/07/19 02:09:15;;;;;;;11.02;9.93;;;;;;;;;;4982152;28;20498;-74
2022/07/19 02:11:41;;;;;;;12.02;10.75;;;;;;;;;;4981963;28;20073;-74
2022/07/19 02:14:09;;;;;;;11.07;10.07;;;;;;;;;;4982606;28;20482;-74
2022/07/19 02:16:35;;;;;;;10.65;9.70;;;;;;;;;;4988463;28;20050;-74
2022/07/19 02:19:02;;;;;;;10.57;9.63;;;;;;;;;;4983504;28;20395;-74
2022/07/19 02:21:28;;;;;;;10.88;9.98;;;;;;;;;;4980348;28;20523;-74
2022/07/19 02:23:54;;;;;;;10.10;9.18;;;;;;;;;;4982276;28;20470;-74
2022/07/19 02:26:20;;;;;;;11.05;9.88;;;;;;;;;;4988336;28;20053;-74
2022/07/19 02:28:46;;;;;;;11.48;9.65;;;;;;;;;;4978936;28;20522;-74
2022/07/19 02:31:12;;;;;;;11.20;9.85;;;;;;;;;;4988627;28;20085;-75
2022/07/19 02:33:38;;;;;;;10.50;9.43;;;;;;;;;;4978145;28;20098;-74
2022/07/19 02:36:04;;;;;;;10.70;9.60;;;;;;;;;;4990179;28;20046;-74
2022/07/19 02:38:30;;;;;;;10.77;9.77;;;;;;;;;;4981290;28;20038;-75
2022/07/19 02:40:56;;;;;;;11.68;9.02;;;;;;;;;;4988458;28;20046;-74
2022/07/19 02:43:22;;;;;;;10.15;9.18;;;;;;;;;;4986464;28;20046;-74
2022/07/19 02:45:48;;;;;;;9.82;9.02;;;;;;;;;;4987861;28;20145;-75
2022/07/19 02:48:15;;;;;;;10.00;9.02;;;;;;;;;;4989387;28;20043;-74
2022/07/19 02:50:41;;;;;;;9.30;8.45;;;;;;;;;;4990153;28;20047;-74
2022/07/19 02:53:07;;;;;;;9.60;8.75;;;;;;;;;;4987009;28;20053;-74
2022/07/19 02:55:33;;;;;;;9.98;8.30;;;;;;;;;;4988452;28;20050;-74
2022/07/19 02:57:59;;;;;;;9.52;8.63;;;;;;;;;;4992408;28;20045;-75
2022/07/19 03:00:26;;;;;;;9.32;8.40;;;;;;;;;;4988141;28;20129;-74
2022/07/19 03:02:52;;;;;;;8.85;7.75;;;;;;;;;;4990791;28;20509;-74
2022/07/19 03:05:18;;;;;;;9.18;7.95;;;;;;;;;;4991544;28;20506;-74
2022/07/19 03:07:44;;;;;;;9.43;8.07;;;;;;;;;;4978961;28;20077;-74
2022/07/19 03:10:10;;;;;;;8.80;7.88;;;;;;;;;;4993361;28;20049;-74
2022/07/19 03:12:36;;;;;;;8.63;7.72;;;;;;;;;;4983955;28;20237;-74
2022/07/19 03:15:02;;;;;;;8.80;7.90;;;;;;;;;;4994193;28;20618;-74
2022/07/19 03:17:28;;;;;;;8.40;7.53;;;;;;;;;;4992127;28;20038;-74
2022/07/19 03:19:54;;;;;;;11.77;8.30;;;;;;;;;;4979273;28;20141;-74
2022/07/19 03:22:20;;;;;;;8.95;8.05;;;;;;;;;;4986552;28;20382;-74
2022/07/19 03:24:46;;;;;;;8.80;7.90;;;;;;;;;;4978498;28;20420;-74
2022/07/19 03:27:12;;;;;;;9.63;7.50;;;;;;;;;;5001253;28;20048;-74
2022/07/19 03:29:38;;;;;;;8.82;7.93;;;;;;;;;;4992983;28;20046;-74
2022/07/19 03:32:04;;;;;;;9.73;7.50;;;;;;;;;;4989805;28;20108;-74
2022/07/19 03:34:30;;;;;;;8.50;7.70;;;;;;;;;;4990868;28;20051;-74
2022/07/19 03:36:56;;;;;;;9.98;8.15;;;;;;;;;;4980061;28;20047;-74
2022/07/19 03:39:22;;;;;;;8.65;7.35;;;;;;;;;;5001260;28;20552;-74
2022/07/19 03:41:48;;;;;;;8.45;7.65;;;;;;;;;;4991494;28;20046;-74
2022/07/19 03:44:14;;;;;;;8.73;7.32;;;;;;;;;;4991858;28;20046;-74
2022/07/19 03:46:40;;;;;;;8.18;7.40;;;;;;;;;;4992616;28;20088;-74
2022/07/19 03:49:06;;;;;;;8.90;7.30;;;;;;;;;;4989821;28;20485;-74
2022/07/19 03:51:32;;;;;;;8.27;7.22;;;;;;;;;;4990395;28;20046;-74
2022/07/19 03:53:58;;;;;;;9.02;7.32;;;;;;;;;;4988975;28;20390;-74
2022/07/19 03:56:24;;;;;;;8.45;7.63;;;;;;;;;;4989798;28;20043;-74
2022/07/19 03:58:50;;;;;;;9.75;7.78;;;;;;;;;;4980187;28;20094;-74
2022/07/19 04:01:17;;;;;;;8.55;7.57;;;;;;;;;;4992185;28;20046;-74
2022/07/19 04:03:43;;;;;;;8.88;7.97;;;;;;;;;;4985537;28;20137;-74
2022/07/19 04:06:10;;;;;;;8.88;7.78;;;;;;;;;;4988903;28;20056;-74
2022/07/19 04:08:36;;;;;;;8.55;7.65;;;;;;;;;;4990637;28;20129;-74
2022/07/19 04:11:03;;;;;;;8.68;7.80;;;;;;;;;;4986261;28;20046;-74
2022/07/19 04:13:29;;;;;;;8.90;8.00;;;;;;;;;;4986969;28;20504;-74
2022/07/19 04:15:55;;;;;;;8.15;7.35;;;;;;;;;;4979357;28;20133;-74
2022/07/19 04:18:21;;;;;;;7.70;7.00;;;;;;;;;;4986923;28;20050;-74
2022/07/19 04:20:47;;;;;;;9.88;6.95;;;;;;;;;;4988533;28;20054;-74
2022/07/19 04:23:13;;;;;;;10.32;7.32;;;;;;;;;;4989241;28;20066;-74
2022/07/19 04:25:39;;;;;;;8.95;7.80;;;;;;;;;;4990306;28;20556;-74
2022/07/19 04:28:07;;;;;;;9.63;7.15;;;;;;;;;;4989448;28;20133;-75
2022/07/19 04:30:33;;;;;;;9.73;7.38;;;;;;;;;;4990707;28;20137;-74
2022/07/19 04:32:59;;;;;;;9.15;8.07;;;;;;;;;;4992945;28;20042;-74
2022/07/19 04:35:25;;;;;;;8.93;8.02;;;;;;;;;;4988570;28;21655;-74
2022/07/19 04:37:51;;;;;;;8.93;7.97;;;;;;;;;;4991372;28;20426;-74
2022/07/19 04:40:17;;;;;;;11.18;8.30;;;;;;;;;;4986691;28;20050;-74
2022/07/19 04:42:43;;;;;;;10.43;7.22;;;;;;;;;;4975324;28;20050;-74
2022/07/19 04:45:09;;;;;;;10.23;7.50;;;;;;;;;;4993977;28;20410;-74
2022/07/19 04:47:35;;;;;;;9.35;8.43;;;;;;;;;;4991878;28;20520;-74
2022/07/19 04:50:01;;;;;;;12.57;7.57;;;;;;;;;;4988712;28;20057;-74
2022/07/19 04:52:27;;;;;;;13.02;8.32;;;;;;;;;;4988451;28;20042;-74
2022/07/19 04:54:53;;;;;;;9.68;7.75;;;;;;;;;;4982380;28;20560;-74
2022/07/19 04:57:19;;;;;;;8.57;7.65;;;;;;;;;;4986593;28;20128;-74
2022/07/19 04:59:45;;;;;;;9.05;7.65;;;;;;;;;;4989050;28;20108;-74
2022/07/19 05:02:11;;;;;;;8.18;7.38;;;;;;;;;;4983139;28;20050;-74
2022/07/19 05:04:37;;;;;;;8.95;7.63;;;;;;;;;;4984915;28;20553;-74
2022/07/19 05:07:03;;;;;;;9.63;6.93;;;;;;;;;;4986101;28;20061;-74
2022/07/19 05:09:29;;;;;;;8.00;7.10;;;;;;;;;;4987993;28;20478;-74
2022/07/19 05:11:56;;;;;;;7.97;7.07;;;;;;;;;;4986230;28;20581;-74
2022/07/19 05:14:23;;;;;;;8.38;7.55;;;;;;;;;;4985074;28;20046;-74
2022/07/19 05:16:49;;;;;;;9.48;7.82;;;;;;;;;;4987568;28;20038;-74
2022/07/19 05:19:16;;;;;;;10.25;7.60;;;;;;;;;;4991848;28;20058;-74
2022/07/19 05:21:42;;;;;;;8.77;7.32;;;;;;;;;;4983078;28;20081;-75
2022/07/19 05:24:08;;;;;;;8.80;7.10;;;;;;;;;;4981483;28;20066;-74
2022/07/19 05:26:35;;;;;;;7.78;6.93;;;;;;;;;;4985004;28;20042;-74
2022/07/19 05:29:01;;;;;;;13.23;7.80;;;;;;;;;;4995601;28;20144;-74
2022/07/19 05:31:30;;;;;;;11.18;7.30;;;;;;;;;;4989032;28;20502;-74
2022/07/19 05:33:56;;;;;;;12.82;7.85;;;;;;;;;;4989083;28;20121;-75
2022/07/19 05:36:22;;;;;;;10.27;7.90;;;;;;;;;;4991171;28;20054;-74
2022/07/19 05:38:48;;;;;;;10.35;7.28;;;;;;;;;;4985613;28;20121;-75
2022/07/19 05:41:16;;;;;;;12.77;7.35;;;;;;;;;;4988470;28;20057;-75
2022/07/19 05:43:42;;;;;;;14.90;7.63;;;;;;;;;;4983688;28;20077;-74
2022/07/19 05:46:09;;;;;;;12.40;6.75;;;;;;;;;;4978682;28;20054;-74
2022/07/19 05:48:35;;;;;;;10.48;7.10;;;;;;;;;;4991272;28;20046;-74
2022/07/19 05:51:01;;;;;;;9.15;7.03;;;;;;;;;;4986712;28;20103;-74
2022/07/19 05:53:27;;;;;;;10.02;7.03;;;;;;;;;;4986861;28;20066;-74
2022/07/19 05:55:53;;;;;;;9.48;7.05;;;;;;;;;;4988512;28;20046;-74
2022/07/19 05:58:20;;;;;;;7.97;6.80;;;;;;;;;;4976563;28;20038;-74
2022/07/19 06:03:31;;;;;;;8.98;6.45;;;;;;;;;;4978180;28;20410;-74
2022/07/19 06:05:57;;;;;;;11.98;6.60;;;;;;;;;;4977076;28;20105;-74
2022/07/19 06:08:23;;;;;;;13.15;7.00;;;;;;;;;;4973702;28;21117;-74
2022/07/19 06:10:49;;;;;;;10.65;7.15;;;;;;;;;;4980212;28;20580;-74
2022/07/19 06:13:16;;;;;;;8.48;6.82;;;;;;;;;;4985747;28;20070;-74
2022/07/19 06:15:42;;;;;;;10.50;6.88;;;;;;;;;;4977574;28;20406;-74
2022/07/19 06:18:08;;;;;;;8.25;6.70;;;;;;;;;;4991816;28;20046;-74
2022/07/19 06:20:34;;;;;;;7.38;6.68;;;;;;;;;;4982292;28;20051;-74
2022/07/19 06:23:01;;;;;;;7.57;6.47;;;;;;;;;;4992489;28;20153;-74
2022/07/19 06:25:27;;;;;;;7.65;6.85;;;;;;;;;;4994944;28;20034;-74
2022/07/19 06:27:53;;;;;;;9.20;8.20;;;;;;;;;;4989427;28;20489;-74
2022/07/19 06:30:19;;;;;;;10.65;8.07;;;;;;;;;;4980913;28;20157;-74
2022/07/19 06:32:45;;;;;;;7.60;6.55;;;;;;;;;;4991312;28;20130;-74
2022/07/19 06:35:11;;;;;;;7.97;6.30;;;;;;;;;;4990665;28;20123;-74
2022/07/19 06:37:37;;;;;;;9.05;6.80;;;;;;;;;;4979653;28;20471;-73
2022/07/19 06:40:04;;;;;;;7.53;6.40;;;;;;;;;;4992512;28;20099;-74
2022/07/19 06:42:30;;;;;;;7.95;6.57;;;;;;;;;;4994323;28;20141;-74
2022/07/19 06:44:56;;;;;;;7.03;6.35;;;;;;;;;;4985805;28;20054;-74
2022/07/19 06:47:22;;;;;;;6.70;5.90;;;;;;;;;;4987252;28;20042;-74
2022/07/19 06:49:48;;;;;;;7.40;6.10;;;;;;;;;;4984840;28;20172;-74
2022/07/19 06:52:14;;;;;;;8.10;6.30;;;;;;;;;;4992487;28;20121;-74
2022/07/19 06:54:40;;;;;;;6.70;5.95;;;;;;;;;;4995909;28;20350;-74
2022/07/19 06:57:08;;;;;;;7.68;6.45;;;;;;;;;;4990950;28;20057;-73
2022/07/19 06:59:34;;;;;;;7.47;5.95;;;;;;;;;;4987111;28;20058;-75
2022/07/19 07:02:01;;;;;;;7.30;5.95;;;;;;;;;;4989300;28;20518;-74
2022/07/19 07:04:27;;;;;;;6.88;6.00;;;;;;;;;;4987364;28;20494;-75
2022/07/19 07:06:53;;;;;;;6.93;6.03;;;;;;;;;;4989010;28;20385;-74
2022/07/19 07:09:19;;;;;;;8.38;6.10;;;;;;;;;;4993954;28;20046;-75
2022/07/19 07:11:45;;;;;;;5.88;5.28;;;;;;;;;;4987202;28;20042;-75
2022/07/19 07:14:11;;;;;;;6.65;6.03;;;;;;;;;;4991416;28;20053;-75
2022/07/19 07:16:37;;;;;;;8.57;6.28;;;;;;;;;;5008354;28;20058;-75
2022/07/19 07:19:03;;;;;;;6.97;6.28;;;;;;;;;;4994939;28;20043;-75
2022/07/19 07:21:33;;;;;;;8.98;6.18;;;;;;;;;;4991481;28;20533;-75
2022/07/19 07:23:59;;;;;;;6.97;5.95;;;;;;;;;;4989982;28;20113;-74
2022/07/19 07:26:25;;;;;;;7.38;5.55;;;;;;;;;;4995313;28;20047;-75
2022/07/19 07:28:51;;;;;;;8.25;5.97;;;;;;;;;;4992108;28;20042;-74
2022/07/19 07:31:17;;;;;;;9.63;5.80;;;;;;;;;;4987789;28;20411;-75
2022/07/19 07:33:43;;;;;;;13.48;5.78;;;;;;;;;;4992125;28;20050;-75
2022/07/19 07:36:09;;;;;;;10.13;6.20;;;;;;;;;;4994158;28;20055;-78
2022/07/19 07:38:35;;;;;;;11.05;5.70;;;;;;;;;;4988655;28;20081;-75
2022/07/19 07:41:03;;;;;;;5.68;5.15;;;;;;;;;;4992788;28;20422;-75
2022/07/19 07:43:29;;;;;;;6.07;4.65;;;;;;;;;;4987288;28;21364;-75
2022/07/19 07:45:55;;;;;;;11.07;5.63;;;;;;;;;;4994190;28;20129;-75
2022/07/19 07:48:21;;;;;;;7.88;5.40;;;;;;;;;;4989399;28;20165;-75
2022/07/19 07:50:48;;;;;;;5.88;4.80;;;;;;;;;;4974142;28;20054;-75
2022/07/19 07:53:14;;;;;;;7.78;4.72;;;;;;;;;;4984423;28;20505;-75
2022/07/19 07:55:40;;;;;;;5.57;4.43;;;;;;;;;;4991809;28;20050;-75
2022/07/19 07:58:08;;;;;;;7.70;3.90;;;;;;;;;;4980700;28;20057;-75
2022/07/19 08:00:34;;;;;;;4.60;3.25;;;;;;;;;;4982187;28;20046;-75
2022/07/19 08:03:00;;;;;;;5.15;3.45;;;;;;;;;;4985382;28;20042;-75
2022/07/19 08:05:26;;;;;;;4.50;3.50;;;;;;;;;;4989232;28;20578;-75
2022/07/19 08:07:53;;;;;;;4.45;3.38;;;;;;;;;;4998507;28;20043;-75
2022/07/19 08:10:20;;;;;;;6.75;3.65;;;;;;;;;;4987421;28;20124;-75
2022/07/19 08:12:46;;;;;;;12.23;4.13;;;;;;;;;;4985888;28;20402;-75
2022/07/19 08:15:18;;;;;;;11.63;4.63;;;;;;;;;;4988992;28;20042;-75
2022/07/19 08:17:44;;;;;;;4.75;3.92;;;;;;;;;;4982127;28;20150;-75
2022/07/19 08:20:10;;;;;;;5.13;3.03;;;;;;;;;;4988268;28;20105;-74
2022/07/19 08:22:36;;;;;;;3.05;2.72;;;;;;;;;;4991985;28;20105;-75
2022/07/19 08:25:02;;;;;;;3.80;2.97;;;;;;;;;;4988366;28;20140;-74
2022/07/19 08:27:28;;;;;;;3.80;2.92;;;;;;;;;;4989480;28;20045;-75
2022/07/19 08:29:54;;;;;;;3.70;2.70;;;;;;;;;;4991856;28;20486;-75
2022/07/19 08:32:20;;;;;;;5.45;2.88;;;;;;;;;;4990707;28;20086;-75
2022/07/19 08:34:46;;;;;;;4.13;2.50;;;;;;;;;;4990900;28;20128;-76
2022/07/19 08:37:12;;;;;;;4.78;2.53;;;;;;;;;;4992365;28;20034;-75
2022/07/19 08:39:41;;;;;;;4.03;2.40;;;;;;;;;;4983338;28;20040;-75
2022/07/19 08:42:09;;;;;;;3.53;2.30;;;;;;;;;;5001248;28;20533;-75
2022/07/19 08:44:38;;;;;;;3.92;2.42;;;;;;;;;;4987683;28;20060;-75
2022/07/19 08:47:05;;;;;;;2.75;2.17;;;;;;;;;;4981962;28;20486;-75
2022/07/19 08:49:31;;;;;;;4.22;2.70;;;;;;;;;;4985352;28;20074;-75
2022/07/19 08:51:57;;;;;;;3.63;2.30;;;;;;;;;;4984880;28;20042;-75
2022/07/19 08:54:23;;;;;;;3.03;2.45;;;;;;;;;;4987611;28;20121;-75
2022/07/19 08:59:34;;;;;;;3.85;2.40;;;;;;;;;;4983468;28;20039;-76
2022/07/19 09:02:00;;;;;;;3.88;2.42;;;;;;;;;;4981475;28;20050;-75
2022/07/19 09:04:28;;;;;;;4.03;2.45;;;;;;;;;;4986731;28;20092;-75
2022/07/19 09:06:55;;;;;;;2.30;2.10;;;;;;;;;;4983681;28;20137;-75
2022/07/19 09:09:24;;;;;;;2.40;2.20;;;;;;;;;;4983138;28;20058;-76
2022/07/19 09:11:51;;;;;;;4.50;3.00;;;;;;;;;;4988149;28;20046;-74
2022/07/19 09:14:19;;;;;;;3.90;2.75;;;;;;;;;;4981609;28;20498;-75
2022/07/19 09:16:51;;;;;;;4.00;2.10;;;;;;;;;;4981070;28;20074;-75
2022/07/19 09:19:18;;;;;;;5.38;2.30;;;;;;;;;;4986391;28;20046;-76
2022/07/19 09:21:57;;;;;;;2.42;2.03;;;;;;;;;;4984185;28;20432;-76
2022/07/19 09:24:24;;;;;;;3.55;2.45;;;;;;;;;;4999231;28;20050;-76
2022/07/19 09:27:01;;;;;;;5.47;2.50;;;;;;;;;;4976194;28;20075;-76
2022/07/19 09:29:28;;;;;;;4.28;2.33;;;;;;;;;;4981852;28;20061;-76
2022/07/19 09:32:06;;;;;;;3.38;2.33;;;;;;;;;;4988531;28;20057;-75
2022/07/19 09:34:36;;;;;;;4.45;2.42;;;;;;;;;;4989208;28;20201;-75
2022/07/19 09:37:11;;;;;;;3.58;1.80;;;;;;;;;;4984356;28;20048;-76
2022/07/19 09:39:41;;;;;;;6.80;2.25;;;;;;;;;;4989180;28;20453;-76
2022/07/19 09:42:07;;;;;;;4.80;2.28;;;;;;;;;;4981849;28;20426;-75
2022/07/19 09:44:33;;;;;;;3.92;2.10;;;;;;;;;;4988020;28;20381;-76
2022/07/19 09:46:59;;;;;;;3.28;1.90;;;;;;;;;;4987072;28;20041;-76
2022/07/19 09:49:26;;;;;;;5.45;2.40;;;;;;;;;;4988391;28;20046;-76
2022/07/19 09:51:53;;;;;;;2.97;2.15;;;;;;;;;;5003636;28;20058;-76
2022/07/19 09:54:22;;;;;;;4.28;2.20;;;;;;;;;;4983104;28;20133;-76
2022/07/19 09:56:50;;;;;;;3.67;2.13;;;;;;;;;;4979848;28;20123;-75
2022/07/19 09:59:17;;;;;;;2.38;2.08;;;;;;;;;;4988249;28;20050;-75
2022/07/19 10:01:44;;;;;;;4.05;2.25;;;;;;;;;;4987810;28;20088;-75
2022/07/19 10:04:14;;;;;;;2.85;2.17;;;;;;;;;;4984749;28;20115;-75
2022/07/19 10:06:41;;;;;;;3.78;2.38;;;;;;;;;;4978968;28;20039;-75
2022/07/19 10:09:08;;;;;;;2.97;2.30;;;;;;;;;;4998114;28;20089;-75
2022/07/19 10:11:35;;;;;;;3.53;2.47;;;;;;;;;;4981802;28;20046;-75
2022/07/19 10:14:01;;;;;;;3.13;2.40;;;;;;;;;;4979980;28;20042;-75
2022/07/19 10:16:33;;;;;;;5.15;2.45;;;;;;;;;;4980936;28;20034;-75
2022/07/19 10:19:09;;;;;;;2.75;2.30;;;;;;;;;;4977660;28;20048;-75
2022/07/19 10:21:35;;;;;;;3.97;2.22;;;;;;;;;;4976903;28;20073;-75
2022/07/19 10:24:02;;;;;;;3.53;2.33;;;;;;;;;;4982553;28;20050;-75
2022/07/19 10:26:35;;;;;;;3.15;2.35;;;;;;;;;;4981918;28;20043;-75
2022/07/19 10:29:07;;;;;;;4.18;2.30;;;;;;;;;;4981216;28;20081;-75
2022/07/19 10:31:35;;;;;;;3.70;2.30;;;;;;;;;;4980673;28;20065;-76
2022/07/19 10:34:05;;;;;;;3.40;2.40;;;;;;;;;;5000543;28;20057;-75
2022/07/19 10:36:39;;;;;;;2.30;2.10;;;;;;;;;;4980880;28;20093;-75
2022/07/19 10:39:23;;;;;;;2.55;2.15;;;;;;;;;;4981440;28;20046;-75
2022/07/19 10:42:08;;;;;;;3.58;2.08;;;;;;;;;;4982706;28;20058;-75
2022/07/19 10:44:35;;;;;;;2.47;2.08;;;;;;;;;;4982859;28;20046;-75
2022/07/19 10:47:01;;;;;;;5.68;2.10;;;;;;;;;;4978252;28;20046;-75
2022/07/19 10:49:46;;;;;;;2.47;1.90;;;;;;;;;;4979348;28;20631;-75
2022/07/19 10:52:27;;;;;;;4.05;2.10;;;;;;;;;;4981342;28;20074;-75
2022/07/19 10:55:20;;;;;;;3.10;2.17;;;;;;;;;;4985703;28;20053;-75
2022/07/19 10:57:46;;;;;;;5.40;2.08;;;;;;;;;;4985147;28;20054;-75
2022/07/19 11:00:19;;;;;;;3.97;2.20;;;;;;;;;;4984348;28;20093;-75
2022/07/19 11:02:46;;;;;;;3.20;2.20;;;;;;;;;;4977385;28;20122;-75
2022/07/19 11:05:30;;;;;;;2.55;2.00;;;;;;;;;;4985187;28;20077;-74
2022/07/19 11:07:57;;;;;;;2.20;2.00;;;;;;;;;;4988159;28;20046;-74
2022/07/19 11:10:25;;;;;;;2.30;2.05;;;;;;;;;;4982868;28;20359;-75
2022/07/19 11:12:51;;;;;;;4.22;2.22;;;;;;;;;;4988320;28;20042;-74
2022/07/19 11:15:17;;;;;;;2.65;1.88;;;;;;;;;;4989440;28;20141;-75
2022/07/19 11:17:54;;;;;;;2.50;1.98;;;;;;;;;;4992935;28;20122;-74
2022/07/19 11:20:23;;;;;;;2.03;1.80;;;;;;;;;;4988854;28;20042;-73
2022/07/19 11:22:49;;;;;;;5.30;2.40;;;;;;;;;;4986997;28;20050;-73
2022/07/19 11:25:16;;;;;;;3.35;2.40;;;;;;;;;;4991259;28;20075;-74
2022/07/19 11:27:43;;;;;;;3.85;2.13;;;;;;;;;;4991698;28;20046;-75
2022/07/19 11:30:10;;;;;;;2.60;2.00;;;;;;;;;;4983539;28;20047;-74
2022/07/19 11:32:36;;;;;;;3.63;1.95;;;;;;;;;;4991134;28;20398;-74
2022/07/19 11:35:04;;;;;;;3.53;2.00;;;;;;;;;;4988997;28;20042;-75
2022/07/19 11:37:32;;;;;;;3.45;2.05;;;;;;;;;;4989294;28;20049;-75
2022/07/19 11:39:58;;;;;;;2.50;2.00;;;;;;;;;;4981643;28;20050;-74
2022/07/19 11:42:35;;;;;;;2.92;1.85;;;;;;;;;;4984364;28;20046;-74
2022/07/19 11:45:14;;;;;;;3.50;2.10;;;;;;;;;;4978457;28;20038;-74
2022/07/19 11:47:44;;;;;;;2.47;2.00;;;;;;;;;;4990396;28;21435;-74
2022/07/19 11:50:11;;;;;;;2.22;2.03;;;;;;;;;;4980308;28;20054;-75
2022/07/19 11:52:41;;;;;;;3.00;1.90;;;;;;;;;;4989884;28;20046;-73
2022/07/19 11:55:08;;;;;;;2.72;2.22;;;;;;;;;;4991477;28;20081;-75
2022/07/19 11:57:34;;;;;;;5.43;2.15;;;;;;;;;;4986355;28;20042;-75
2022/07/19 12:00:00;;;;;;;4.13;2.08;;;;;;;;;;4981151;28;20042;-75
2022/07/19 12:02:26;;;;;;;3.17;1.90;;;;;;;;;;4980139;28;20146;-76
2022/07/19 12:04:52;;;;;;;4.13;1.90;;;;;;;;;;4983010;28;20504;-76
2022/07/19 12:07:18;;;;;;;2.15;1.83;;;;;;;;;;4993099;28;20042;-76
2022/07/19 12:09:45;;;;;;;4.00;2.10;;;;;;;;;;4986491;28;20636;-76
2022/07/19 12:12:15;;;;;;;3.65;2.05;;;;;;;;;;4980441;28;20101;-76
2022/07/19 12:14:41;;;;;;;2.47;2.05;;;;;;;;;;4979767;28;20055;-77
2022/07/19 12:17:12;;;;;;;2.08;1.83;;;;;;;;;;4980427;28;20058;-76
2022/07/19 12:19:39;;;;;;;3.50;2.00;;;;;;;;;;4980135;28;20499;-76
2022/07/19 12:22:05;;;;;;;3.85;1.92;;;;;;;;;;4990360;28;20145;-76
2022/07/19 12:24:32;;;;;;;1.88;1.77;;;;;;;;;;4981802;28;20058;-76
2022/07/19 12:27:06;;;;;;;2.50;2.08;;;;;;;;;;4986538;28;20043;-76
2022/07/19 12:29:35;;;;;;;3.63;1.80;;;;;;;;;;4990177;28;20050;-77
2022/07/19 12:32:01;;;;;;;6.50;2.08;;;;;;;;;;4976097;28;20417;-76
2022/07/19 12:34:28;;;;;;;3.85;2.00;;;;;;;;;;4981751;28;20584;-76
2022/07/19 12:36:55;;;;;;;2.20;1.85;;;;;;;;;;4985749;28;20042;-77
2022/07/19 12:39:25;;;;;;;5.18;1.83;;;;;;;;;;4999619;28;20046;-76
2022/07/19 12:42:06;;;;;;;3.10;1.90;;;;;;;;;;5033937;27;1228369;-76
2022/07/19 12:44:34;;;;;;;3.38;1.95;;;;;;;;;;5054820;28;20135;-76
2022/07/19 12:47:00;;;;;;;3.78;2.15;;;;;;;;;;5050609;28;20037;-77
2022/07/19 12:49:40;;;;;;;2.25;1.80;;;;;;;;;;5046316;28;20049;-76
2022/07/19 12:52:06;;;;;;;3.05;2.00;;;;;;;;;;5045936;28;20469;-75
2022/07/19 12:54:32;;;;;;;2.13;1.77;;;;;;;;;;5050218;28;20098;-76
2022/07/19 12:56:58;;;;;;;5.72;1.90;;;;;;;;;;5046151;28;20045;-76
2022/07/19 12:59:39;;;;;;;3.80;2.03;;;;;;;;;;5047218;28;20048;-76
2022/07/19 13:02:06;;;;;;;4.13;2.10;;;;;;;;;;5047964;28;20052;-76
2022/07/19 13:04:32;;;;;;;3.55;2.20;;;;;;;;;;5047482;28;20052;-76
2022/07/19 13:06:58;;;;;;;4.80;1.70;;;;;;;;;;5050179;28;20084;-76
2022/07/19 13:09:24;;;;;;;2.15;1.77;;;;;;;;;;5048411;28;20438;-76
2022/07/19 13:11:50;;;;;;;6.53;2.30;;;;;;;;;;5050279;28;20044;-77
2022/07/19 13:14:16;;;;;;;2.65;1.98;;;;;;;;;;5046295;28;20439;-77
2022/07/19 13:16:42;;;;;;;3.88;2.08;;;;;;;;;;5048622;28;20084;-77
2022/07/19 13:19:08;;;;;;;2.35;2.10;;;;;;;;;;5047172;28;20906;-76
2022/07/19 13:21:35;;;;;;;4.50;1.90;;;;;;;;;;5053332;28;20049;-77
2022/07/19 13:24:01;;;;;;;2.13;2.00;;;;;;;;;;5048723;28;20068;-76
2022/07/19 13:26:27;;;;;;;3.17;2.00;;;;;;;;;;5054041;28;20099;-76
2022/07/19 13:28:53;;;;;;;3.13;1.83;;;;;;;;;;5046555;28;20045;-77
2022/07/19 13:31:19;;;;;;;3.47;1.80;;;;;;;;;;5048092;28;20041;-77
2022/07/19 13:33:45;;;;;;;3.10;2.10;;;;;;;;;;5053474;28;20033;-77
2022/07/19 13:36:11;;;;;;;3.40;1.80;;;;;;;;;;5045292;28;20084;-77
2022/07/19 13:38:40;;;;;;;3.70;2.65;;;;;;;;;;5049582;28;20041;-77
2022/07/19 13:41:06;;;;;;;2.92;2.00;;;;;;;;;;5046612;28;20108;-76
2022/07/19 13:43:32;;;;;;;3.78;2.10;;;;;;;;;;5053499;28;20558;-77
2022/07/19 13:45:59;;;;;;;5.78;1.90;;;;;;;;;;5048469;28;20045;-77
2022/07/19 13:48:25;;;;;;;4.60;2.00;;;;;;;;;;5056500;28;20660;-77
2022/07/19 13:50:51;;;;;;;2.22;1.85;;;;;;;;;;5046276;28;20052;-77
2022/07/19 13:53:17;;;;;;;4.00;1.90;;;;;;;;;;5034652;28;20044;-76
2022/07/19 13:55:43;;;;;;;3.97;2.15;;;;;;;;;;5029294;28;20041;-76
2022/07/19 13:58:09;;;;;;;5.75;2.17;;;;;;;;;;5043534;28;20052;-77
2022/07/19 14:00:35;;;;;;;3.13;1.85;;;;;;;;;;5047050;28;20123;-77
2022/07/19 14:03:01;;;;;;;5.95;2.15;;;;;;;;;;5033534;28;20141;-77
2022/07/19 14:05:27;;;;;;;3.00;1.70;;;;;;;;;;5042146;28;20106;-76
2022/07/19 14:07:53;;;;;;;4.55;2.10;;;;;;;;;;5032964;28;20060;-76
2022/07/19 14:10:21;;;;;;;4.30;2.10;;;;;;;;;;5032335;28;20049;-77
2022/07/19 14:12:47;;;;;;;4.82;1.92;;;;;;;;;;5032610;28;20033;-77
2022/07/19 14:15:13;;;;;;;4.20;1.80;;;;;;;;;;5037446;28;20378;-77
2022/07/19 14:17:39;;;;;;;2.45;1.85;;;;;;;;;;5032153;28;20044;-77
2022/07/19 14:20:05;;;;;;;4.00;1.90;;;;;;;;;;5039544;28;20439;-77
2022/07/19 14:22:32;;;;;;;6.60;2.00;;;;;;;;;;5039924;28;20075;-77
2022/07/19 14:24:59;;;;;;;2.55;1.90;;;;;;;;;;5041672;28;20127;-77
2022/07/19 14:27:25;;;;;;;2.25;1.60;;;;;;;;;;5034572;28;20122;-76
2022/07/19 14:29:52;;;;;;;2.45;1.80;;;;;;;;;;5034389;28;20247;-77
2022/07/19 14:32:18;;;;;;;2.72;1.80;;;;;;;;;;5041284;28;20139;-77
2022/07/19 14:34:44;;;;;;;4.28;1.73;;;;;;;;;;5040531;28;20041;-77
2022/07/19 14:37:10;;;;;;;2.63;1.60;;;;;;;;;;5035692;28;20036;-76
2022/07/19 14:39:36;;;;;;;2.92;1.83;;;;;;;;;;5029182;28;20053;-77
2022/07/19 14:42:03;;;;;;;2.45;1.63;;;;;;;;;;5039797;28;20061;-77
2022/07/19 14:44:29;;;;;;;1.88;1.45;;;;;;;;;;5036358;28;20057;-78